sensor_id;sensor_type;location;lat;lon;timestamp;pressure;altitude;pressure_sealevel;temperature
20867;BMP280;10593;48.398;10.698;2023-02-12T00:01:10;98063.78;;;9.07
20867;BMP280;10593;48.398;10.698;2023-02-12T00:03:36;98060.38;;;9.08
20867;BMP280;10593;48.398;10.698;2023-02-12T00:06:03;98059.53;;;9.07
20867;BMP280;10593;48.398;10.698;2023-02-12T00:08:29;98070.66;;;9.08
20867;BMP280;10593;48.398;10.698;2023-02-12T00:10:55;98070.66;;;9.08
20867;BMP280;10593;48.398;10.698;2023-02-12T00:13:20;98077.50;;;9.07
20867;BMP280;10593;48.398;10.698;2023-02-12T00:15:46;98082.63;;;9.09
20867;BMP280;10593;48.398;10.698;2023-02-12T00:18:12;98083.47;;;9.08
20867;BMP280;10593;48.398;10.698;2023-02-12T00:20:38;98086.03;;;9.08
20867;BMP280;10593;48.398;10.698;2023-02-12T00:23:05;98080.06;;;9.09
20867;BMP280;10593;48.398;10.698;2023-02-12T00:25:32;98081.75;;;9.07
20867;BMP280;10593;48.398;10.698;2023-02-12T00:27:58;98078.28;;;9.06
20867;BMP280;10593;48.398;10.698;2023-02-12T00:30:23;98086.03;;;9.08
20867;BMP280;10593;48.398;10.698;2023-02-12T00:32:49;98084.31;;;9.07
20867;BMP280;10593;48.398;10.698;2023-02-12T00:35:14;98079.16;;;9.07
20867;BMP280;10593;48.398;10.698;2023-02-12T00:37:40;98078.34;;;9.08
20867;BMP280;10593;48.398;10.698;2023-02-12T00:40:07;98084.31;;;9.07
20867;BMP280;10593;48.398;10.698;2023-02-12T00:42:32;98083.41;;;9.06
20867;BMP280;10593;48.398;10.698;2023-02-12T00:44:58;98086.81;;;9.05
20867;BMP280;10593;48.398;10.698;2023-02-12T00:47:24;98082.56;;;9.06
20867;BMP280;10593;48.398;10.698;2023-02-12T00:49:49;98083.41;;;9.06
20867;BMP280;10593;48.398;10.698;2023-02-12T00:52:15;98082.56;;;9.06
20867;BMP280;10593;48.398;10.698;2023-02-12T00:54:41;98080.00;;;9.06
20867;BMP280;10593;48.398;10.698;2023-02-12T00:57:07;98089.44;;;9.07
20867;BMP280;10593;48.398;10.698;2023-02-12T00:59:32;98092.84;;;9.06
20867;BMP280;10593;48.398;10.698;2023-02-12T01:02:01;98091.09;;;9.05
20867;BMP280;10593;48.398;10.698;2023-02-12T01:04:26;98085.97;;;9.05
20867;BMP280;10593;48.398;10.698;2023-02-12T01:06:52;98085.09;;;9.04
20867;BMP280;10593;48.398;10.698;2023-02-12T01:09:17;98074.00;;;9.04
20867;BMP280;10593;48.398;10.698;2023-02-12T01:11:43;98089.38;;;9.04
20867;BMP280;10593;48.398;10.698;2023-02-12T01:14:09;98081.69;;;9.04
20867;BMP280;10593;48.398;10.698;2023-02-12T01:16:35;98085.09;;;9.03
20867;BMP280;10593;48.398;10.698;2023-02-12T01:19:02;98082.53;;;9.03
20867;BMP280;10593;48.398;10.698;2023-02-12T01:21:32;98091.94;;;9.04
20867;BMP280;10593;48.398;10.698;2023-02-12T01:23:59;98094.47;;;9.02
20867;BMP280;10593;48.398;10.698;2023-02-12T01:26:27;98097.91;;;9.03
20867;BMP280;10593;48.398;10.698;2023-02-12T01:29:00;98083.38;;;9.02
20867;BMP280;10593;48.398;10.698;2023-02-12T01:31:30;98081.66;;;9.02
20867;BMP280;10593;48.398;10.698;2023-02-12T01:33:59;98084.22;;;9.01
20867;BMP280;10593;48.398;10.698;2023-02-12T01:36:27;98080.81;;;9.02
20867;BMP280;10593;48.398;10.698;2023-02-12T01:38:53;98086.78;;;9.01
20867;BMP280;10593;48.398;10.698;2023-02-12T01:41:29;98091.03;;;9.00
20867;BMP280;10593;48.398;10.698;2023-02-12T01:44:21;98076.47;;;8.99
20867;BMP280;10593;48.398;10.698;2023-02-12T01:47:00;98077.31;;;9.00
20867;BMP280;10593;48.398;10.698;2023-02-12T01:49:36;98083.28;;;8.99
20867;BMP280;10593;48.398;10.698;2023-02-12T01:52:19;98079.00;;;8.98
20867;BMP280;10593;48.398;10.698;2023-02-12T01:54:51;98073.03;;;8.99
20867;BMP280;10593;48.398;10.698;2023-02-12T01:57:19;98067.06;;;8.98
20867;BMP280;10593;48.398;10.698;2023-02-12T01:59:47;98071.31;;;8.98
20867;BMP280;10593;48.398;10.698;2023-02-12T02:02:15;98074.75;;;8.98
20867;BMP280;10593;48.398;10.698;2023-02-12T02:04:49;98074.75;;;8.98
20867;BMP280;10593;48.398;10.698;2023-02-12T02:07:16;98078.16;;;8.99
20867;BMP280;10593;48.398;10.698;2023-02-12T02:09:43;98070.47;;;8.99
20867;BMP280;10593;48.398;10.698;2023-02-12T02:12:09;98071.31;;;8.98
20867;BMP280;10593;48.398;10.698;2023-02-12T02:14:56;98072.16;;;8.97
20867;BMP280;10593;48.398;10.698;2023-02-12T02:17:49;98067.84;;;8.96
20867;BMP280;10593;48.398;10.698;2023-02-12T02:24:50;98057.53;;;8.91
20867;BMP280;10593;48.398;10.698;2023-02-12T02:27:07;98060.97;;;8.92
20867;BMP280;10593;48.398;10.698;2023-02-12T02:30:25;98055.78;;;8.89
20867;BMP280;10593;48.398;10.698;2023-02-12T02:33:12;98060.06;;;8.90
20867;BMP280;10593;48.398;10.698;2023-02-12T02:35:52;98053.22;;;8.89
20867;BMP280;10593;48.398;10.698;2023-02-12T02:38:40;98057.50;;;8.90
20867;BMP280;10593;48.398;10.698;2023-02-12T02:41:27;98054.94;;;8.90
20867;BMP280;10593;48.398;10.698;2023-02-12T02:43:54;98057.47;;;8.88
20867;BMP280;10593;48.398;10.698;2023-02-12T02:46:42;98051.50;;;8.89
20867;BMP280;10593;48.398;10.698;2023-02-12T02:49:20;98053.22;;;8.89
20867;BMP280;10593;48.398;10.698;2023-02-12T02:51:52;98051.50;;;8.89
20867;BMP280;10593;48.398;10.698;2023-02-12T02:54:33;98042.13;;;8.90
20867;BMP280;10593;48.398;10.698;2023-02-12T02:57:15;98040.41;;;8.89
20867;BMP280;10593;48.398;10.698;2023-02-12T02:59:47;98043.81;;;8.89
20867;BMP280;10593;48.398;10.698;2023-02-12T03:02:23;98049.81;;;8.90
20867;BMP280;10593;48.398;10.698;2023-02-12T03:05:16;98056.63;;;8.89
20867;BMP280;10593;48.398;10.698;2023-02-12T03:07:55;98054.94;;;8.90
20867;BMP280;10593;48.398;10.698;2023-02-12T03:10:28;98041.25;;;8.89
20867;BMP280;10593;48.398;10.698;2023-02-12T03:13:11;98054.94;;;8.90
20867;BMP280;10593;48.398;10.698;2023-02-12T03:15:45;98055.78;;;8.89
20867;BMP280;10593;48.398;10.698;2023-02-12T03:18:26;98057.50;;;8.90
20867;BMP280;10593;48.398;10.698;2023-02-12T03:21:03;98058.34;;;8.89
20867;BMP280;10593;48.398;10.698;2023-02-12T03:23:41;98064.31;;;8.89
20867;BMP280;10593;48.398;10.698;2023-02-12T03:26:41;98069.44;;;8.88
20867;BMP280;10593;48.398;10.698;2023-02-12T03:29:08;98077.13;;;8.88
20867;BMP280;10593;48.398;10.698;2023-02-12T03:31:57;98077.97;;;8.88
20867;BMP280;10593;48.398;10.698;2023-02-12T03:34:45;98077.13;;;8.88
20867;BMP280;10593;48.398;10.698;2023-02-12T03:40:21;98067.72;;;8.88
20867;BMP280;10593;48.398;10.698;2023-02-12T03:42:59;98080.50;;;8.87
20867;BMP280;10593;48.398;10.698;2023-02-12T03:46:05;98071.09;;;8.86
20867;BMP280;10593;48.398;10.698;2023-02-12T03:48:43;98076.22;;;8.86
20867;BMP280;10593;48.398;10.698;2023-02-12T03:53:46;98083.06;;;8.87
20867;BMP280;10593;48.398;10.698;2023-02-12T03:56:24;98080.50;;;8.87
20867;BMP280;10593;48.398;10.698;2023-02-12T03:58:54;98079.69;;;8.88
20867;BMP280;10593;48.398;10.698;2023-02-12T04:01:19;98082.25;;;8.88
20867;BMP280;10593;48.398;10.698;2023-02-12T04:03:45;98089.97;;;8.89
20867;BMP280;10593;48.398;10.698;2023-02-12T04:06:24;98085.72;;;8.90
20867;BMP280;10593;48.398;10.698;2023-02-12T04:08:52;98093.41;;;8.90
20867;BMP280;10593;48.398;10.698;2023-02-12T04:14:51;98091.69;;;8.89
20867;BMP280;10593;48.398;10.698;2023-02-12T04:17:46;98101.00;;;8.87
20867;BMP280;10593;48.398;10.698;2023-02-12T04:20:52;98104.50;;;8.89
20867;BMP280;10593;48.398;10.698;2023-02-12T04:23:37;98108.69;;;8.87
20867;BMP280;10593;48.398;10.698;2023-02-12T04:37:20;98120.66;;;8.86
20867;BMP280;10593;48.398;10.698;2023-02-12T04:39:48;98118.97;;;8.87
20867;BMP280;10593;48.398;10.698;2023-02-12T04:42:15;98119.78;;;8.86
20867;BMP280;10593;48.398;10.698;2023-02-12T04:44:43;98113.81;;;8.87
20867;BMP280;10593;48.398;10.698;2023-02-12T04:47:12;98111.25;;;8.87
20867;BMP280;10593;48.398;10.698;2023-02-12T04:49:38;98119.00;;;8.88
20867;BMP280;10593;48.398;10.698;2023-02-12T04:52:04;98120.72;;;8.88
20867;BMP280;10593;48.398;10.698;2023-02-12T04:54:30;98119.00;;;8.88
20867;BMP280;10593;48.398;10.698;2023-02-12T04:56:55;98115.59;;;8.89
20867;BMP280;10593;48.398;10.698;2023-02-12T04:59:21;98111.34;;;8.90
20867;BMP280;10593;48.398;10.698;2023-02-12T05:01:47;98116.47;;;8.90
20867;BMP280;10593;48.398;10.698;2023-02-12T05:04:14;98108.78;;;8.90
20867;BMP280;10593;48.398;10.698;2023-02-12T05:06:42;98107.91;;;8.89
20867;BMP280;10593;48.398;10.698;2023-02-12T05:09:13;98113.06;;;8.91
20867;BMP280;10593;48.398;10.698;2023-02-12T05:11:39;98116.47;;;8.90
20867;BMP280;10593;48.398;10.698;2023-02-12T05:14:05;98114.75;;;8.89
20867;BMP280;10593;48.398;10.698;2023-02-12T05:16:30;98107.91;;;8.89
20867;BMP280;10593;48.398;10.698;2023-02-12T05:18:56;98110.47;;;8.89
20867;BMP280;10593;48.398;10.698;2023-02-12T05:21:22;98114.75;;;8.89
20867;BMP280;10593;48.398;10.698;2023-02-12T05:23:48;98122.44;;;8.89
20867;BMP280;10593;48.398;10.698;2023-02-12T05:26:18;98124.13;;;8.88
20867;BMP280;10593;48.398;10.698;2023-02-12T05:28:44;98118.09;;;8.86
20867;BMP280;10593;48.398;10.698;2023-02-12T05:31:17;98127.56;;;8.89
20867;BMP280;10593;48.398;10.698;2023-02-12T05:33:46;98123.28;;;8.88
20867;BMP280;10593;48.398;10.698;2023-02-12T05:36:17;98125.84;;;8.88
20867;BMP280;10593;48.398;10.698;2023-02-12T05:38:43;98125.84;;;8.88
20867;BMP280;10593;48.398;10.698;2023-02-12T05:41:13;98124.97;;;8.87
20867;BMP280;10593;48.398;10.698;2023-02-12T05:43:39;98124.09;;;8.87
20867;BMP280;10593;48.398;10.698;2023-02-12T05:46:06;98130.09;;;8.87
20867;BMP280;10593;48.398;10.698;2023-02-12T05:48:34;98123.25;;;8.86
20867;BMP280;10593;48.398;10.698;2023-02-12T05:51:05;98129.22;;;8.87
20867;BMP280;10593;48.398;10.698;2023-02-12T05:53:32;98127.47;;;8.86
20867;BMP280;10593;48.398;10.698;2023-02-12T05:56:18;98131.75;;;8.85
20867;BMP280;10593;48.398;10.698;2023-02-12T05:58:50;98130.88;;;8.85
20867;BMP280;10593;48.398;10.698;2023-02-12T06:01:27;98133.44;;;8.85
20867;BMP280;10593;48.398;10.698;2023-02-12T06:03:53;98127.47;;;8.84
20867;BMP280;10593;48.398;10.698;2023-02-12T06:06:19;98127.47;;;8.84
20867;BMP280;10593;48.398;10.698;2023-02-12T06:08:49;98136.84;;;8.84
20867;BMP280;10593;48.398;10.698;2023-02-12T06:11:16;98134.28;;;8.84
20867;BMP280;10593;48.398;10.698;2023-02-12T06:13:43;98143.69;;;8.85
20867;BMP280;10593;48.398;10.698;2023-02-12T06:16:21;98136.88;;;8.85
20867;BMP280;10593;48.398;10.698;2023-02-12T06:18:48;98142.81;;;8.83
20867;BMP280;10593;48.398;10.698;2023-02-12T06:21:18;98147.94;;;8.83
20867;BMP280;10593;48.398;10.698;2023-02-12T06:23:44;98147.09;;;8.84
20867;BMP280;10593;48.398;10.698;2023-02-12T06:26:10;98156.50;;;8.83
20867;BMP280;10593;48.398;10.698;2023-02-12T06:28:36;98147.97;;;8.84
20867;BMP280;10593;48.398;10.698;2023-02-12T06:31:02;98157.34;;;8.84
20867;BMP280;10593;48.398;10.698;2023-02-12T06:33:29;98168.50;;;8.84
20867;BMP280;10593;48.398;10.698;2023-02-12T06:35:54;98161.63;;;8.83
20867;BMP280;10593;48.398;10.698;2023-02-12T06:38:20;98166.75;;;8.83
20867;BMP280;10593;48.398;10.698;2023-02-12T06:40:46;98168.50;;;8.84
20867;BMP280;10593;48.398;10.698;2023-02-12T06:43:12;98167.59;;;8.84
20867;BMP280;10593;48.398;10.698;2023-02-12T06:45:37;98167.59;;;8.84
20867;BMP280;10593;48.398;10.698;2023-02-12T06:48:03;98165.94;;;8.84
20867;BMP280;10593;48.398;10.698;2023-02-12T06:50:29;98164.22;;;8.85
20867;BMP280;10593;48.398;10.698;2023-02-12T06:52:57;98166.78;;;8.85
20867;BMP280;10593;48.398;10.698;2023-02-12T06:55:22;98165.94;;;8.84
20867;BMP280;10593;48.398;10.698;2023-02-12T06:57:48;98168.50;;;8.84
20867;BMP280;10593;48.398;10.698;2023-02-12T07:00:14;98170.22;;;8.85
20867;BMP280;10593;48.398;10.698;2023-02-12T07:02:40;98172.78;;;8.85
20867;BMP280;10593;48.398;10.698;2023-02-12T07:05:06;98170.22;;;8.85
20867;BMP280;10593;48.398;10.698;2023-02-12T07:07:32;98172.78;;;8.85
20867;BMP280;10593;48.398;10.698;2023-02-12T07:09:58;98169.38;;;8.86
20867;BMP280;10593;48.398;10.698;2023-02-12T07:12:23;98165.94;;;8.86
20867;BMP280;10593;48.398;10.698;2023-02-12T07:14:49;98169.44;;;8.88
20867;BMP280;10593;48.398;10.698;2023-02-12T07:17:15;98164.28;;;8.88
20867;BMP280;10593;48.398;10.698;2023-02-12T07:19:40;98161.72;;;8.88
20867;BMP280;10593;48.398;10.698;2023-02-12T07:22:06;98150.63;;;8.89
20867;BMP280;10593;48.398;10.698;2023-02-12T07:24:31;98162.63;;;8.90
20867;BMP280;10593;48.398;10.698;2023-02-12T07:26:57;98159.22;;;8.91
20867;BMP280;10593;48.398;10.698;2023-02-12T07:29:23;98152.38;;;8.90
20867;BMP280;10593;48.398;10.698;2023-02-12T07:31:48;98157.53;;;8.93
20867;BMP280;10593;48.398;10.698;2023-02-12T07:34:14;98144.72;;;8.93
20867;BMP280;10593;48.398;10.698;2023-02-12T07:36:40;98144.78;;;8.94
20867;BMP280;10593;48.398;10.698;2023-02-12T07:39:06;98149.91;;;8.94
20867;BMP280;10593;48.398;10.698;2023-02-12T07:41:34;98144.78;;;8.96
20867;BMP280;10593;48.398;10.698;2023-02-12T07:44:07;98150.78;;;8.98
20867;BMP280;10593;48.398;10.698;2023-02-12T07:46:43;98140.53;;;8.98
20867;BMP280;10593;48.398;10.698;2023-02-12T07:49:19;98143.16;;;8.99
20867;BMP280;10593;48.398;10.698;2023-02-12T07:51:47;98141.44;;;9.00
20867;BMP280;10593;48.398;10.698;2023-02-12T07:54:13;98140.63;;;9.01
20867;BMP280;10593;48.398;10.698;2023-02-12T07:56:41;98148.31;;;9.02
20867;BMP280;10593;48.398;10.698;2023-02-12T07:59:13;98137.22;;;9.03
20867;BMP280;10593;48.398;10.698;2023-02-12T08:01:42;98147.53;;;9.06
20867;BMP280;10593;48.398;10.698;2023-02-12T08:04:13;98131.31;;;9.06
20867;BMP280;10593;48.398;10.698;2023-02-12T08:06:44;98137.31;;;9.08
20867;BMP280;10593;48.398;10.698;2023-02-12T08:09:20;98130.50;;;9.08
20867;BMP280;10593;48.398;10.698;2023-02-12T08:11:46;98134.78;;;9.09
20867;BMP280;10593;48.398;10.698;2023-02-12T08:14:15;98139.97;;;9.12
20867;BMP280;10593;48.398;10.698;2023-02-12T08:16:43;98145.94;;;9.13
20867;BMP280;10593;48.398;10.698;2023-02-12T08:19:09;98137.41;;;9.14
20867;BMP280;10593;48.398;10.698;2023-02-12T08:21:35;98144.31;;;9.15
20867;BMP280;10593;48.398;10.698;2023-02-12T08:24:01;98142.63;;;9.17
20867;BMP280;10593;48.398;10.698;2023-02-12T08:26:30;98143.50;;;9.20
20867;BMP280;10593;48.398;10.698;2023-02-12T08:29:05;98150.41;;;9.21
20867;BMP280;10593;48.398;10.698;2023-02-12T08:31:34;98149.56;;;9.22
20867;BMP280;10593;48.398;10.698;2023-02-12T08:34:01;98147.00;;;9.24
20867;BMP280;10593;48.398;10.698;2023-02-12T08:36:34;98150.47;;;9.26
20867;BMP280;10593;48.398;10.698;2023-02-12T08:39:00;98143.69;;;9.28
20867;BMP280;10593;48.398;10.698;2023-02-12T08:41:28;98147.13;;;9.31
20867;BMP280;10593;48.398;10.698;2023-02-12T08:43:57;98150.59;;;9.33
20867;BMP280;10593;48.398;10.698;2023-02-12T08:46:30;98148.94;;;9.37
20867;BMP280;10593;48.398;10.698;2023-02-12T08:49:00;98149.00;;;9.40
20867;BMP280;10593;48.398;10.698;2023-02-12T08:51:29;98151.63;;;9.43
20867;BMP280;10593;48.398;10.698;2023-02-12T08:54:03;98142.25;;;9.45
20867;BMP280;10593;48.398;10.698;2023-02-12T08:56:31;98155.97;;;9.47
20867;BMP280;10593;48.398;10.698;2023-02-12T08:58:58;98142.34;;;9.49
20867;BMP280;10593;48.398;10.698;2023-02-12T09:01:27;98147.53;;;9.52
20867;BMP280;10593;48.398;10.698;2023-02-12T09:03:54;98154.38;;;9.53
20867;BMP280;10593;48.398;10.698;2023-02-12T09:06:22;98148.41;;;9.54
20867;BMP280;10593;48.398;10.698;2023-02-12T09:08:49;98145.84;;;9.54
20867;BMP280;10593;48.398;10.698;2023-02-12T09:11:22;98150.16;;;9.57
20867;BMP280;10593;48.398;10.698;2023-02-12T09:13:57;98140.78;;;9.59
20867;BMP280;10593;48.398;10.698;2023-02-12T09:16:28;98149.38;;;9.61
20867;BMP280;10593;48.398;10.698;2023-02-12T09:18:54;98143.44;;;9.63
20867;BMP280;10593;48.398;10.698;2023-02-12T09:21:20;98145.16;;;9.66
20867;BMP280;10593;48.398;10.698;2023-02-12T09:23:47;98157.22;;;9.70
20867;BMP280;10593;48.398;10.698;2023-02-12T09:26:17;98151.25;;;9.71
20867;BMP280;10593;48.398;10.698;2023-02-12T09:28:45;98148.69;;;9.72
20867;BMP280;10593;48.398;10.698;2023-02-12T09:31:16;98151.34;;;9.75
20867;BMP280;10593;48.398;10.698;2023-02-12T09:33:42;98155.63;;;9.78
20867;BMP280;10593;48.398;10.698;2023-02-12T09:36:13;98153.09;;;9.81
20867;BMP280;10593;48.398;10.698;2023-02-12T09:38:39;98157.47;;;9.85
20867;BMP280;10593;48.398;10.698;2023-02-12T09:41:49;98154.06;;;9.86
20867;BMP280;10593;48.398;10.698;2023-02-12T09:44:35;98156.63;;;9.86
20867;BMP280;10593;48.398;10.698;2023-02-12T09:52:18;98160.16;;;9.94
20867;BMP280;10593;48.398;10.698;2023-02-12T09:54:44;98156.81;;;9.98
20867;BMP280;10593;48.398;10.698;2023-02-12T09:57:22;98156.06;;;10.02
20867;BMP280;10593;48.398;10.698;2023-02-12T10:00:02;98162.06;;;10.04
20867;BMP280;10593;48.398;10.698;2023-02-12T10:02:28;98160.38;;;10.06
20867;BMP280;10593;48.398;10.698;2023-02-12T10:04:54;98165.59;;;10.09
20867;BMP280;10593;48.398;10.698;2023-02-12T10:10:15;98162.22;;;10.14
20867;BMP280;10593;48.398;10.698;2023-02-12T10:15:55;98163.13;;;10.18
20867;BMP280;10593;48.398;10.698;2023-02-12T10:19:08;98168.28;;;10.18
20867;BMP280;10593;48.398;10.698;2023-02-12T10:25:23;98159.75;;;10.20
20867;BMP280;10593;48.398;10.698;2023-02-12T10:27:54;98154.66;;;10.22
20867;BMP280;10593;48.398;10.698;2023-02-12T10:33:12;98159.81;;;10.26
20867;BMP280;10593;48.398;10.698;2023-02-12T10:35:48;98166.72;;;10.29
20867;BMP280;10593;48.398;10.698;2023-02-12T10:38:21;98153.91;;;10.30
20867;BMP280;10593;48.398;10.698;2023-02-12T10:40:49;98153.06;;;10.32
20867;BMP280;10593;48.398;10.698;2023-02-12T10:43:15;98156.50;;;10.34
20867;BMP280;10593;48.398;10.698;2023-02-12T10:45:42;98161.72;;;10.38
20867;BMP280;10593;48.398;10.698;2023-02-12T10:48:19;98152.31;;;10.39
20867;BMP280;10593;48.398;10.698;2023-02-12T10:53:44;98146.38;;;10.42
20867;BMP280;10593;48.398;10.698;2023-02-12T11:01:34;98151.53;;;10.46
20867;BMP280;10593;48.398;10.698;2023-02-12T11:04:29;98158.41;;;10.47
20867;BMP280;10593;48.398;10.698;2023-02-12T11:07:07;98150.72;;;10.49
20867;BMP280;10593;48.398;10.698;2023-02-12T11:09:44;98152.47;;;10.50
20867;BMP280;10593;48.398;10.698;2023-02-12T11:12:39;98148.19;;;10.50
20867;BMP280;10593;48.398;10.698;2023-02-12T11:15:21;98151.63;;;10.52
20867;BMP280;10593;48.398;10.698;2023-02-12T11:18:05;98141.38;;;10.52
20867;BMP280;10593;48.398;10.698;2023-02-12T11:20:40;98145.66;;;10.55
20867;BMP280;10593;48.398;10.698;2023-02-12T11:23:30;98144.00;;;10.57
20867;BMP280;10593;48.398;10.698;2023-02-12T11:26:27;98131.13;;;10.58
20867;BMP280;10593;48.398;10.698;2023-02-12T11:29:17;98135.44;;;10.59
20867;BMP280;10593;48.398;10.698;2023-02-12T11:32:00;98129.47;;;10.62
20867;BMP280;10593;48.398;10.698;2023-02-12T11:34:27;98128.66;;;10.64
20867;BMP280;10593;48.398;10.698;2023-02-12T11:36:54;98142.41;;;10.66
20867;BMP280;10593;48.398;10.698;2023-02-12T11:39:27;98138.97;;;10.67
20867;BMP280;10593;48.398;10.698;2023-02-12T11:42:03;98136.44;;;10.69
20867;BMP280;10593;48.398;10.698;2023-02-12T11:44:38;98143.31;;;10.70
20867;BMP280;10593;48.398;10.698;2023-02-12T11:47:20;98146.75;;;10.72
20867;BMP280;10593;48.398;10.698;2023-02-12T11:49:58;98138.19;;;10.73
20867;BMP280;10593;48.398;10.698;2023-02-12T11:52:34;98142.50;;;10.74
20867;BMP280;10593;48.398;10.698;2023-02-12T11:55:10;98140.78;;;10.76
20867;BMP280;10593;48.398;10.698;2023-02-12T11:57:48;98129.66;;;10.77
20867;BMP280;10593;48.398;10.698;2023-02-12T12:03:28;98129.69;;;10.78
20867;BMP280;10593;48.398;10.698;2023-02-12T12:06:06;98127.09;;;10.80
20867;BMP280;10593;48.398;10.698;2023-02-12T12:08:49;98123.69;;;10.81
20867;BMP280;10593;48.398;10.698;2023-02-12T12:11:24;98128.91;;;10.84
20867;BMP280;10593;48.398;10.698;2023-02-12T12:14:15;98117.75;;;10.85
20867;BMP280;10593;48.398;10.698;2023-02-12T12:17:04;98111.75;;;10.86
20867;BMP280;10593;48.398;10.698;2023-02-12T12:20:14;98108.34;;;10.87
20867;BMP280;10593;48.398;10.698;2023-02-12T12:23:02;98107.50;;;10.88
20867;BMP280;10593;48.398;10.698;2023-02-12T12:25:51;98104.97;;;10.89
20867;BMP280;10593;48.398;10.698;2023-02-12T12:28:47;98103.25;;;10.91
20867;BMP280;10593;48.398;10.698;2023-02-12T12:31:26;98099.84;;;10.94
20867;BMP280;10593;48.398;10.698;2023-02-12T12:34:22;98098.16;;;10.96
20867;BMP280;10593;48.398;10.698;2023-02-12T12:40:37;98095.59;;;10.96
20867;BMP280;10593;48.398;10.698;2023-02-12T12:46:13;98095.63;;;10.99
20867;BMP280;10593;48.398;10.698;2023-02-12T12:52:28;98088.81;;;11.05
20867;BMP280;10593;48.398;10.698;2023-02-12T12:58:47;98088.00;;;11.09
20867;BMP280;10593;48.398;10.698;2023-02-12T13:07:45;98075.22;;;11.18
20867;BMP280;10593;48.398;10.698;2023-02-12T13:15:57;98083.91;;;11.29
20867;BMP280;10593;48.398;10.698;2023-02-12T13:22:30;98081.38;;;11.35
20867;BMP280;10593;48.398;10.698;2023-02-12T13:27:24;98077.16;;;11.42
20867;BMP280;10593;48.398;10.698;2023-02-12T13:30:17;98080.59;;;11.44
20867;BMP280;10593;48.398;10.698;2023-02-12T13:33:15;98076.34;;;11.47
20867;BMP280;10593;48.398;10.698;2023-02-12T13:35:47;98078.91;;;11.49
20867;BMP280;10593;48.398;10.698;2023-02-12T13:38:38;98070.34;;;11.51
20867;BMP280;10593;48.398;10.698;2023-02-12T13:41:08;98066.94;;;11.54
20867;BMP280;10593;48.398;10.698;2023-02-12T13:49:50;98061.88;;;11.60
20867;BMP280;10593;48.398;10.698;2023-02-12T13:52:29;98061.88;;;11.61
20867;BMP280;10593;48.398;10.698;2023-02-12T13:55:21;98062.75;;;11.63
20867;BMP280;10593;48.398;10.698;2023-02-12T14:01:00;98055.91;;;11.65
20867;BMP280;10593;48.398;10.698;2023-02-12T14:03:29;98065.34;;;11.66
20867;BMP280;10593;48.398;10.698;2023-02-12T14:06:18;98057.66;;;11.68
20867;BMP280;10593;48.398;10.698;2023-02-12T14:09:09;98064.53;;;11.69
20867;BMP280;10593;48.398;10.698;2023-02-12T14:11:49;98057.63;;;11.69
20867;BMP280;10593;48.398;10.698;2023-02-12T14:14:48;98056.81;;;11.70
20867;BMP280;10593;48.398;10.698;2023-02-12T14:20:28;98060.25;;;11.74
20867;BMP280;10593;48.398;10.698;2023-02-12T14:23:25;98052.53;;;11.74
20867;BMP280;10593;48.398;10.698;2023-02-12T14:26:11;98049.13;;;11.76
20867;BMP280;10593;48.398;10.698;2023-02-12T14:28:59;98051.72;;;11.78
20867;BMP280;10593;48.398;10.698;2023-02-12T14:36:41;98050.00;;;11.81
20867;BMP280;10593;48.398;10.698;2023-02-12T14:44:44;98049.16;;;11.84
20867;BMP280;10593;48.398;10.698;2023-02-12T14:49:56;98050.03;;;11.86
20867;BMP280;10593;48.398;10.698;2023-02-12T14:52:30;98046.59;;;11.87
20867;BMP280;10593;48.398;10.698;2023-02-12T14:55:04;98049.19;;;11.88
20867;BMP280;10593;48.398;10.698;2023-02-12T14:57:40;98044.88;;;11.89
20867;BMP280;10593;48.398;10.698;2023-02-12T15:00:35;98044.91;;;11.90
20867;BMP280;10593;48.398;10.698;2023-02-12T15:03:21;98045.75;;;11.89
20867;BMP280;10593;48.398;10.698;2023-02-12T15:06:18;98036.31;;;11.88
20867;BMP280;10593;48.398;10.698;2023-02-12T15:09:00;98035.44;;;11.88
20867;BMP280;10593;48.398;10.698;2023-02-12T15:11:46;98030.28;;;11.88
20867;BMP280;10593;48.398;10.698;2023-02-12T15:14:23;98024.28;;;11.89
20867;BMP280;10593;48.398;10.698;2023-02-12T15:17:02;98020.03;;;11.91
20867;BMP280;10593;48.398;10.698;2023-02-12T15:19:57;98017.41;;;11.88
20867;BMP280;10593;48.398;10.698;2023-02-12T15:22:32;98017.41;;;11.86
20867;BMP280;10593;48.398;10.698;2023-02-12T15:25:27;98017.41;;;11.86
20867;BMP280;10593;48.398;10.698;2023-02-12T15:28:03;98019.13;;;11.87
20867;BMP280;10593;48.398;10.698;2023-02-12T15:30:33;98010.56;;;11.88
20867;BMP280;10593;48.398;10.698;2023-02-12T15:33:04;98008.84;;;11.90
20867;BMP280;10593;48.398;10.698;2023-02-12T15:35:34;98014.00;;;11.90
20867;BMP280;10593;48.398;10.698;2023-02-12T15:38:01;98017.44;;;11.92
20867;BMP280;10593;48.398;10.698;2023-02-12T15:40:30;98015.72;;;11.94
20867;BMP280;10593;48.398;10.698;2023-02-12T15:43:04;98024.31;;;11.96
20867;BMP280;10593;48.398;10.698;2023-02-12T15:45:33;98016.59;;;11.96
20867;BMP280;10593;48.398;10.698;2023-02-12T15:50:44;98014.00;;;11.96
20867;BMP280;10593;48.398;10.698;2023-02-12T15:53:13;98015.75;;;11.97
20867;BMP280;10593;48.398;10.698;2023-02-12T15:55:43;98007.16;;;11.97
20867;BMP280;10593;48.398;10.698;2023-02-12T16:00:52;98012.31;;;11.97
20867;BMP280;10593;48.398;10.698;2023-02-12T16:03:30;98012.31;;;11.97
20867;BMP280;10593;48.398;10.698;2023-02-12T16:06:06;98008.84;;;11.96
20867;BMP280;10593;48.398;10.698;2023-02-12T16:08:37;98013.16;;;11.96
20867;BMP280;10593;48.398;10.698;2023-02-12T16:11:04;98018.31;;;11.96
20867;BMP280;10593;48.398;10.698;2023-02-12T16:13:43;98013.16;;;11.96
20867;BMP280;10593;48.398;10.698;2023-02-12T16:18:40;98018.31;;;11.96
20867;BMP280;10593;48.398;10.698;2023-02-12T16:21:16;98018.31;;;11.96
20867;BMP280;10593;48.398;10.698;2023-02-12T16:23:45;98020.03;;;11.94
20867;BMP280;10593;48.398;10.698;2023-02-12T16:26:26;98019.16;;;11.93
20867;BMP280;10593;48.398;10.698;2023-02-12T16:28:54;98026.03;;;11.93
20867;BMP280;10593;48.398;10.698;2023-02-12T16:31:22;98025.16;;;11.92
20867;BMP280;10593;48.398;10.698;2023-02-12T16:33:55;98026.91;;;11.92
20867;BMP280;10593;48.398;10.698;2023-02-12T16:41:33;98030.28;;;11.88
20867;BMP280;10593;48.398;10.698;2023-02-12T16:46:51;98038.84;;;11.84